Time;durP1;ratioP1;P1;durP2;ratioP2;P2;SDS_P1;SDS_P2;PMS_P1;PMS_P2;Temp;Humidity;BMP_temperature;BMP_pressure;BME280_temperature;BME280_humidity;BME280_pressure;Samples;Min_cycle;Max_cycle;Signal;HPM_P1;HPM_P2
2022/04/30 00:02:14;;;;;;;26.83;12.18;;;;;;;;;;6238107;23;20009;-45
2022/04/30 00:04:41;;;;;;;23.15;12.50;;;;;;;;;;6210519;23;20410;-42
2022/04/30 00:07:06;;;;;;;27.15;13.57;;;;;;;;;;6238747;23;20028;-43
2022/04/30 00:09:32;;;;;;;23.27;13.68;;;;;;;;;;6235560;23;20020;-43
2022/04/30 00:11:58;;;;;;;23.88;14.32;;;;;;;;;;6212394;23;20012;-44
2022/04/30 00:14:24;;;;;;;23.95;14.98;;;;;;;;;;6236009;23;20065;-42
2022/04/30 00:16:49;;;;;;;20.42;13.35;;;;;;;;;;6239331;23;20747;-43
2022/04/30 00:19:15;;;;;;;20.55;13.57;;;;;;;;;;6235969;23;20082;-43
2022/04/30 00:21:40;;;;;;;21.00;13.20;;;;;;;;;;6239885;23;20008;-43
2022/04/30 00:24:05;;;;;;;20.17;12.93;;;;;;;;;;6236628;23;20682;-45
2022/04/30 00:26:31;;;;;;;24.38;12.35;;;;;;;;;;6238357;23;20034;-43
2022/04/30 00:28:56;;;;;;;20.10;11.85;;;;;;;;;;6236791;23;20043;-43
2022/04/30 00:31:21;;;;;;;19.77;12.35;;;;;;;;;;6236751;23;20178;-43
2022/04/30 00:33:48;;;;;;;21.98;12.30;;;;;;;;;;6236613;23;20014;-43
2022/04/30 00:36:17;;;;;;;20.80;13.85;;;;;;;;;;6237828;23;20008;-43
2022/04/30 00:38:42;;;;;;;20.95;13.10;;;;;;;;;;6237118;23;20726;-44
2022/04/30 00:41:08;;;;;;;24.33;14.38;;;;;;;;;;6238723;23;20008;-43
2022/04/30 00:43:43;;;;;;;23.48;13.77;;;;;;;;;;6235712;23;20019;-43
2022/04/30 00:46:11;;;;;;;27.73;15.40;;;;;;;;;;6237500;23;20043;-43
2022/04/30 00:48:36;;;;;;;30.23;17.00;;;;;;;;;;6237102;23;20024;-44
2022/04/30 00:51:02;;;;;;;28.20;17.20;;;;;;;;;;6237455;23;20619;-42
2022/04/30 00:53:27;;;;;;;21.17;13.60;;;;;;;;;;6237647;23;20385;-42
2022/04/30 00:55:54;;;;;;;25.60;15.82;;;;;;;;;;6237084;23;20018;-44
2022/04/30 00:58:21;;;;;;;26.20;15.15;;;;;;;;;;6237436;23;20009;-44
2022/04/30 01:00:48;;;;;;;30.15;16.33;;;;;;;;;;6237255;23;20079;-43
2022/04/30 01:03:13;;;;;;;27.38;15.88;;;;;;;;;;6238360;23;20008;-45
2022/04/30 01:05:39;;;;;;;25.88;15.93;;;;;;;;;;6236008;23;20020;-45
2022/04/30 01:08:04;;;;;;;33.58;16.92;;;;;;;;;;6210374;23;20103;-43
2022/04/30 01:10:30;;;;;;;30.35;16.85;;;;;;;;;;6235397;23;20016;-43
2022/04/30 01:12:55;;;;;;;24.38;15.50;;;;;;;;;;6238174;23;20628;-43
2022/04/30 01:15:21;;;;;;;31.98;16.05;;;;;;;;;;6208606;23;20020;-44
2022/04/30 01:17:46;;;;;;;34.08;16.35;;;;;;;;;;6238000;23;20008;-43
2022/04/30 01:20:12;;;;;;;27.90;15.88;;;;;;;;;;6237776;23;20027;-44
2022/04/30 01:22:56;;;;;;;26.40;15.40;;;;;;;;;;6237071;23;20005;-42
2022/04/30 01:25:21;;;;;;;24.63;14.13;;;;;;;;;;6235164;23;20019;-43
2022/04/30 01:27:47;;;;;;;28.45;14.95;;;;;;;;;;6238312;23;20016;-46
2022/04/30 01:30:13;;;;;;;25.27;13.93;;;;;;;;;;6235137;23;20028;-45
2022/04/30 01:38:07;;;;;;;23.73;13.82;;;;;;;;;;6238692;23;20048;-44
2022/04/30 01:40:33;;;;;;;25.42;12.68;;;;;;;;;;6234781;23;20027;-42
2022/04/30 01:43:00;;;;;;;22.33;13.30;;;;;;;;;;6237371;23;20132;-44
2022/04/30 01:45:26;;;;;;;20.70;13.10;;;;;;;;;;6234916;23;20650;-46
2022/04/30 01:47:52;;;;;;;18.92;13.20;;;;;;;;;;6237799;23;20426;-43
2022/04/30 01:50:18;;;;;;;24.98;14.20;;;;;;;;;;6234987;23;20023;-44
2022/04/30 01:52:43;;;;;;;23.48;14.18;;;;;;;;;;6237416;23;20016;-43
2022/04/30 01:55:10;;;;;;;25.98;15.10;;;;;;;;;;6235799;23;20032;-43
2022/04/30 01:57:38;;;;;;;27.23;14.70;;;;;;;;;;6236840;23;20099;-42
2022/04/30 02:00:04;;;;;;;24.67;13.93;;;;;;;;;;6237128;23;20008;-42
2022/04/30 02:02:36;;;;;;;21.48;12.80;;;;;;;;;;6236422;23;20236;-44
2022/04/30 02:05:05;;;;;;;19.50;13.90;;;;;;;;;;6238541;23;20023;-43
2022/04/30 02:07:30;;;;;;;23.30;13.13;;;;;;;;;;6235372;23;20024;-42
2022/04/30 02:09:58;;;;;;;22.17;13.23;;;;;;;;;;6230029;23;20008;-43
2022/04/30 02:12:24;;;;;;;24.90;13.13;;;;;;;;;;6236043;23;20039;-44
2022/04/30 02:14:51;;;;;;;25.80;14.65;;;;;;;;;;6236298;23;20039;-44
2022/04/30 02:17:18;;;;;;;23.42;13.90;;;;;;;;;;6232999;23;20514;-43
2022/04/30 02:22:30;;;;;;;30.23;15.63;;;;;;;;;;6236527;23;20043;-43
2022/04/30 02:24:56;;;;;;;23.75;14.18;;;;;;;;;;6237370;23;20012;-42
2022/04/30 02:27:22;;;;;;;23.65;13.60;;;;;;;;;;6208407;23;20024;-42
2022/04/30 02:29:48;;;;;;;24.42;13.68;;;;;;;;;;6234870;23;20031;-43
2022/04/30 02:32:13;;;;;;;24.25;13.60;;;;;;;;;;6232212;23;20397;-45
2022/04/30 02:34:38;;;;;;;18.63;11.93;;;;;;;;;;6236860;23;20009;-43
2022/04/30 02:37:04;;;;;;;21.20;13.05;;;;;;;;;;6236542;23;20421;-43
2022/04/30 02:39:30;;;;;;;23.08;13.13;;;;;;;;;;6235329;23;20024;-42
2022/04/30 02:41:55;;;;;;;29.35;13.98;;;;;;;;;;6235586;23;20036;-45
2022/04/30 02:44:20;;;;;;;20.73;12.32;;;;;;;;;;6235958;23;20013;-43
2022/04/30 02:46:46;;;;;;;27.00;13.05;;;;;;;;;;6237270;23;20072;-42
2022/04/30 02:49:11;;;;;;;21.45;12.15;;;;;;;;;;6235484;23;20037;-43
2022/04/30 02:51:36;;;;;;;20.58;13.18;;;;;;;;;;6209837;23;20015;-43
2022/04/30 02:54:01;;;;;;;23.05;12.90;;;;;;;;;;6235570;23;20016;-43
2022/04/30 02:56:28;;;;;;;24.00;13.45;;;;;;;;;;6236661;23;20012;-42
2022/04/30 03:01:37;;;;;;;28.70;14.85;;;;;;;;;;6235371;23;20315;-43
2022/04/30 03:04:02;;;;;;;27.52;15.88;;;;;;;;;;6237339;23;20621;-43
2022/04/30 03:06:28;;;;;;;22.98;13.13;;;;;;;;;;6236239;23;20027;-43
2022/04/30 03:08:55;;;;;;;20.23;12.40;;;;;;;;;;6235650;23;20226;-44
2022/04/30 03:11:20;;;;;;;25.85;14.88;;;;;;;;;;6236184;23;20599;-43
2022/04/30 03:13:45;;;;;;;21.80;13.02;;;;;;;;;;6236411;23;20004;-43
2022/04/30 03:21:49;;;;;;;24.60;13.55;;;;;;;;;;6234661;23;20717;-43
2022/04/30 03:24:15;;;;;;;23.27;13.38;;;;;;;;;;6235833;23;20016;-44
2022/04/30 03:26:42;;;;;;;23.50;13.85;;;;;;;;;;6234956;23;20066;-44
2022/04/30 03:29:08;;;;;;;19.58;12.25;;;;;;;;;;6236326;23;20022;-43
2022/04/30 03:31:33;;;;;;;19.80;11.95;;;;;;;;;;6233784;23;20036;-45
2022/04/30 03:33:58;;;;;;;23.63;13.95;;;;;;;;;;6238508;23;20060;-43
2022/04/30 03:36:23;;;;;;;19.10;12.88;;;;;;;;;;6236665;23;20016;-42
2022/04/30 03:38:49;;;;;;;23.70;13.23;;;;;;;;;;6237963;23;20015;-44
2022/04/30 03:41:15;;;;;;;26.92;14.15;;;;;;;;;;6237193;23;20556;-43
2022/04/30 03:43:41;;;;;;;25.65;14.23;;;;;;;;;;6239213;23;20350;-43
2022/04/30 03:46:06;;;;;;;21.73;11.45;;;;;;;;;;6238453;23;20012;-43
2022/04/30 03:48:32;;;;;;;23.40;13.57;;;;;;;;;;6238180;23;20024;-44
2022/04/30 03:50:57;;;;;;;24.75;13.05;;;;;;;;;;6237953;23;20020;-45
2022/04/30 03:53:23;;;;;;;28.20;14.05;;;;;;;;;;6234964;23;20008;-45
2022/04/30 03:55:49;;;;;;;23.02;12.13;;;;;;;;;;6238988;23;20012;-44
2022/04/30 03:58:15;;;;;;;21.55;13.10;;;;;;;;;;6236127;23;20011;-43
2022/04/30 04:00:40;;;;;;;23.92;13.38;;;;;;;;;;6212094;23;20016;-44
2022/04/30 04:03:06;;;;;;;25.08;13.35;;;;;;;;;;6237293;23;20079;-43
2022/04/30 04:05:31;;;;;;;22.83;13.77;;;;;;;;;;6238871;23;20028;-43
2022/04/30 04:07:57;;;;;;;25.45;13.80;;;;;;;;;;6236999;23;20059;-43
2022/04/30 04:10:23;;;;;;;20.15;11.93;;;;;;;;;;6238639;23;20078;-42
2022/04/30 04:12:49;;;;;;;27.35;13.50;;;;;;;;;;6236988;23;20008;-43
2022/04/30 04:17:58;;;;;;;20.17;12.48;;;;;;;;;;6237507;23;20019;-44
2022/04/30 04:20:27;;;;;;;26.13;12.25;;;;;;;;;;6237181;23;20008;-42
2022/04/30 04:22:52;;;;;;;17.98;11.15;;;;;;;;;;6236406;23;20015;-42
2022/04/30 04:28:02;;;;;;;18.05;9.63;;;;;;;;;;6236859;23;20249;-42
2022/04/30 04:30:29;;;;;;;20.25;11.63;;;;;;;;;;6237150;23;20622;-43
2022/04/30 04:32:55;;;;;;;25.27;12.00;;;;;;;;;;6238455;23;20042;-42
2022/04/30 04:35:21;;;;;;;20.83;12.15;;;;;;;;;;6236733;23;20008;-42
2022/04/30 04:37:46;;;;;;;21.15;11.82;;;;;;;;;;6238502;23;20869;-43
2022/04/30 04:40:13;;;;;;;19.60;11.77;;;;;;;;;;6237925;23;20032;-44
2022/04/30 04:42:38;;;;;;;20.42;11.48;;;;;;;;;;6237744;23;20046;-46
2022/04/30 04:45:04;;;;;;;24.25;11.40;;;;;;;;;;6237175;23;20004;-43
2022/04/30 04:47:29;;;;;;;19.95;11.35;;;;;;;;;;6238379;23;20020;-46
2022/04/30 04:49:55;;;;;;;19.98;11.52;;;;;;;;;;6236386;23;20476;-44
2022/04/30 04:52:21;;;;;;;17.98;11.07;;;;;;;;;;6237503;23;20008;-42
2022/04/30 04:54:46;;;;;;;18.77;11.52;;;;;;;;;;6237113;23;20083;-43
2022/04/30 04:57:11;;;;;;;20.45;11.32;;;;;;;;;;6238175;23;20016;-42
2022/04/30 04:59:37;;;;;;;18.55;10.82;;;;;;;;;;6237755;23;20005;-42
2022/04/30 05:02:03;;;;;;;21.33;10.95;;;;;;;;;;6238637;23;20022;-46
2022/04/30 05:04:29;;;;;;;20.90;11.60;;;;;;;;;;6236469;23;20043;-42
2022/04/30 05:06:54;;;;;;;20.90;11.52;;;;;;;;;;6211582;23;20028;-44
2022/04/30 05:09:19;;;;;;;20.08;11.00;;;;;;;;;;6235721;23;20030;-44
2022/04/30 05:11:44;;;;;;;21.25;12.43;;;;;;;;;;6238842;23;20011;-42
2022/04/30 05:14:09;;;;;;;23.02;12.02;;;;;;;;;;6237215;23;20015;-44
2022/04/30 05:16:35;;;;;;;21.02;11.82;;;;;;;;;;6237971;23;20012;-44
2022/04/30 05:19:00;;;;;;;20.95;11.93;;;;;;;;;;6237025;23;20008;-42
2022/04/30 05:21:25;;;;;;;25.05;12.02;;;;;;;;;;6235080;23;20012;-43
2022/04/30 05:23:51;;;;;;;18.30;10.80;;;;;;;;;;6237950;23;20012;-45
2022/04/30 05:26:16;;;;;;;18.17;11.23;;;;;;;;;;6235477;23;20020;-43
2022/04/30 05:28:41;;;;;;;19.23;10.77;;;;;;;;;;6237104;23;20016;-43
2022/04/30 05:31:06;;;;;;;23.02;11.40;;;;;;;;;;6235421;23;20012;-44
2022/04/30 05:33:34;;;;;;;21.05;11.75;;;;;;;;;;6235038;23;20016;-43
2022/04/30 05:36:00;;;;;;;24.23;12.63;;;;;;;;;;6237382;23;20023;-44
2022/04/30 05:38:25;;;;;;;23.52;14.13;;;;;;;;;;6207397;23;20410;-45
2022/04/30 05:40:50;;;;;;;20.00;12.57;;;;;;;;;;6231953;23;20011;-46
2022/04/30 05:43:15;;;;;;;21.33;12.75;;;;;;;;;;6179398;23;20023;-42
2022/04/30 05:45:41;;;;;;;23.40;11.90;;;;;;;;;;6230337;23;20019;-44
2022/04/30 05:48:06;;;;;;;21.27;12.50;;;;;;;;;;6233613;23;20031;-48
2022/04/30 05:50:31;;;;;;;22.90;13.77;;;;;;;;;;6236649;23;20027;-46
2022/04/30 05:52:57;;;;;;;28.25;13.82;;;;;;;;;;6234251;23;20389;-43
2022/04/30 05:55:23;;;;;;;25.42;14.05;;;;;;;;;;6235622;23;20019;-44
2022/04/30 05:57:48;;;;;;;23.58;13.20;;;;;;;;;;6234914;23;20101;-44
2022/04/30 06:00:14;;;;;;;27.88;13.45;;;;;;;;;;6235970;23;20466;-46
2022/04/30 06:02:40;;;;;;;22.63;12.00;;;;;;;;;;6233429;23;20005;-45
2022/04/30 06:05:06;;;;;;;24.20;13.10;;;;;;;;;;6221948;23;20016;-45
2022/04/30 06:07:31;;;;;;;34.30;14.18;;;;;;;;;;6226449;23;20035;-42
2022/04/30 06:09:56;;;;;;;23.75;12.95;;;;;;;;;;6232868;23;20012;-46
2022/04/30 06:12:21;;;;;;;22.33;12.70;;;;;;;;;;6233466;23;20032;-43
2022/04/30 06:14:47;;;;;;;24.05;12.50;;;;;;;;;;6234604;23;20031;-43
2022/04/30 06:17:12;;;;;;;23.10;11.73;;;;;;;;;;6233522;23;20124;-45
2022/04/30 06:19:37;;;;;;;20.67;13.00;;;;;;;;;;6233661;23;20113;-44
2022/04/30 06:22:03;;;;;;;22.15;12.32;;;;;;;;;;6234007;23;20020;-43
2022/04/30 06:24:28;;;;;;;23.35;13.20;;;;;;;;;;6233219;23;20032;-44
2022/04/30 06:26:53;;;;;;;25.75;13.75;;;;;;;;;;6208752;23;20020;-45
2022/04/30 06:29:19;;;;;;;23.95;13.20;;;;;;;;;;6233650;23;20063;-46
2022/04/30 06:31:44;;;;;;;25.52;12.43;;;;;;;;;;6234356;23;20501;-45
2022/04/30 06:34:09;;;;;;;25.92;13.50;;;;;;;;;;6235451;23;20077;-43
2022/04/30 06:36:35;;;;;;;35.17;16.30;;;;;;;;;;6233408;23;20035;-44
2022/04/30 06:39:00;;;;;;;29.83;15.85;;;;;;;;;;6235532;23;20031;-45
2022/04/30 06:41:25;;;;;;;24.38;13.55;;;;;;;;;;6233086;23;20017;-44
2022/04/30 06:43:51;;;;;;;23.10;13.55;;;;;;;;;;6236737;23;20008;-46
2022/04/30 06:46:16;;;;;;;25.30;13.73;;;;;;;;;;6232128;23;20115;-44
2022/04/30 06:48:42;;;;;;;26.60;12.93;;;;;;;;;;6235874;23;20020;-43
2022/04/30 06:51:07;;;;;;;26.52;14.30;;;;;;;;;;6234522;23;20012;-45
2022/04/30 06:59:01;;;;;;;29.70;13.88;;;;;;;;;;6235183;23;20011;-44
2022/04/30 07:01:39;;;;;;;25.60;14.63;;;;;;;;;;6233783;23;20008;-43
2022/04/30 07:04:05;;;;;;;29.80;14.60;;;;;;;;;;6234552;23;20022;-45
2022/04/30 07:06:32;;;;;;;26.63;13.73;;;;;;;;;;6233738;23;20066;-44
2022/04/30 07:08:57;;;;;;;27.17;14.23;;;;;;;;;;6233617;23;20039;-45
2022/04/30 07:11:23;;;;;;;25.45;13.07;;;;;;;;;;6232692;23;20016;-43
2022/04/30 07:13:48;;;;;;;25.55;14.05;;;;;;;;;;6233570;23;20054;-44
2022/04/30 07:16:13;;;;;;;24.00;12.95;;;;;;;;;;6206665;23;20012;-45
2022/04/30 07:18:39;;;;;;;27.13;14.40;;;;;;;;;;6230008;23;20028;-44
2022/04/30 07:21:04;;;;;;;39.28;14.80;;;;;;;;;;6230659;23;20437;-44
2022/04/30 07:23:30;;;;;;;24.08;12.65;;;;;;;;;;6220178;23;20040;-45
2022/04/30 07:25:55;;;;;;;32.47;13.73;;;;;;;;;;6208029;23;20014;-46
2022/04/30 07:28:22;;;;;;;23.35;13.48;;;;;;;;;;6232787;23;20051;-43
2022/04/30 07:30:47;;;;;;;22.83;12.95;;;;;;;;;;6234938;23;20022;-43
2022/04/30 07:33:13;;;;;;;24.48;13.43;;;;;;;;;;6233690;23;20004;-44
2022/04/30 07:35:38;;;;;;;27.00;12.73;;;;;;;;;;6236287;23;20218;-45
2022/04/30 07:38:03;;;;;;;27.45;12.40;;;;;;;;;;6233877;23;20079;-44
2022/04/30 07:40:29;;;;;;;25.23;12.05;;;;;;;;;;6236042;23;20016;-47
2022/04/30 07:42:54;;;;;;;22.92;12.38;;;;;;;;;;6234634;23;20004;-46
2022/04/30 07:45:19;;;;;;;24.83;11.75;;;;;;;;;;6234039;23;20020;-44
2022/04/30 07:47:44;;;;;;;23.98;12.63;;;;;;;;;;6234202;23;20064;-45
2022/04/30 07:50:10;;;;;;;22.38;12.50;;;;;;;;;;6233767;23;20007;-43
2022/04/30 07:52:35;;;;;;;23.42;10.57;;;;;;;;;;6234463;23;20059;-45
2022/04/30 07:55:02;;;;;;;20.33;10.68;;;;;;;;;;6230589;23;20020;-44
2022/04/30 07:57:28;;;;;;;24.13;10.95;;;;;;;;;;6234062;23;20202;-45
2022/04/30 07:59:53;;;;;;;24.85;12.50;;;;;;;;;;6233253;23;20032;-43
2022/04/30 08:02:18;;;;;;;25.40;12.80;;;;;;;;;;6234280;23;20023;-44
2022/04/30 08:04:45;;;;;;;22.05;11.93;;;;;;;;;;6235431;23;20072;-43
2022/04/30 08:07:10;;;;;;;18.48;11.00;;;;;;;;;;6234945;23;20024;-45
2022/04/30 08:09:35;;;;;;;23.13;11.43;;;;;;;;;;6233660;23;20038;-43
2022/04/30 08:12:00;;;;;;;20.02;10.10;;;;;;;;;;6235400;23;20004;-44
2022/04/30 08:14:26;;;;;;;23.30;11.48;;;;;;;;;;6233545;23;20012;-43
2022/04/30 08:16:51;;;;;;;23.63;11.70;;;;;;;;;;6235803;23;20055;-43
2022/04/30 08:19:16;;;;;;;17.73;10.23;;;;;;;;;;6235859;23;20204;-44
2022/04/30 08:21:43;;;;;;;17.55;9.85;;;;;;;;;;6235689;23;20016;-46
2022/04/30 08:24:08;;;;;;;19.65;10.23;;;;;;;;;;6236788;23;20016;-44
2022/04/30 08:26:33;;;;;;;18.50;8.93;;;;;;;;;;6231769;23;20008;-44
2022/04/30 08:28:58;;;;;;;23.00;10.55;;;;;;;;;;6235446;23;20015;-45
2022/04/30 08:31:24;;;;;;;18.20;9.63;;;;;;;;;;6236530;23;20599;-45
2022/04/30 08:33:49;;;;;;;17.52;10.07;;;;;;;;;;6235425;23;20081;-46
2022/04/30 08:36:14;;;;;;;15.00;9.52;;;;;;;;;;6236939;23;20008;-45
2022/04/30 08:38:40;;;;;;;17.75;10.05;;;;;;;;;;6236854;23;20149;-43
2022/04/30 08:41:08;;;;;;;18.67;9.00;;;;;;;;;;6236767;23;20022;-43
2022/04/30 08:43:33;;;;;;;16.02;8.95;;;;;;;;;;6236561;23;20012;-43
2022/04/30 08:45:59;;;;;;;16.00;8.25;;;;;;;;;;6236894;23;20012;-43
2022/04/30 08:48:26;;;;;;;19.02;9.95;;;;;;;;;;6231789;23;20035;-43
2022/04/30 08:50:51;;;;;;;16.92;9.13;;;;;;;;;;6209567;23;20004;-45
2022/04/30 08:53:17;;;;;;;16.92;9.63;;;;;;;;;;6234936;23;20374;-43
2022/04/30 08:55:42;;;;;;;13.95;8.68;;;;;;;;;;6232282;23;20652;-45
2022/04/30 08:58:07;;;;;;;16.05;8.73;;;;;;;;;;6233153;23;20020;-43
2022/04/30 09:00:43;;;;;;;19.75;8.85;;;;;;;;;;6230671;23;20016;-45
2022/04/30 09:03:08;;;;;;;16.90;8.95;;;;;;;;;;6230941;23;20024;-43
2022/04/30 09:05:37;;;;;;;13.88;8.27;;;;;;;;;;6232215;23;20067;-43
2022/04/30 09:08:02;;;;;;;15.45;8.63;;;;;;;;;;6229426;23;20024;-45
2022/04/30 09:10:32;;;;;;;17.65;9.18;;;;;;;;;;6231753;23;20060;-44
2022/04/30 09:13:04;;;;;;;15.57;8.50;;;;;;;;;;6231410;23;20014;-43
2022/04/30 09:15:30;;;;;;;15.98;8.57;;;;;;;;;;6232629;23;20036;-44
2022/04/30 09:17:56;;;;;;;18.15;8.02;;;;;;;;;;6230986;23;20043;-44
2022/04/30 09:20:21;;;;;;;14.98;8.55;;;;;;;;;;6230166;23;20042;-44
2022/04/30 09:22:46;;;;;;;16.35;9.52;;;;;;;;;;6207110;23;20138;-46
2022/04/30 09:25:13;;;;;;;15.10;9.15;;;;;;;;;;6232256;23;20705;-50
2022/04/30 09:27:43;;;;;;;16.30;8.68;;;;;;;;;;6233043;23;20099;-44
2022/04/30 09:30:19;;;;;;;17.25;7.90;;;;;;;;;;6224925;23;20497;-44
2022/04/30 09:32:45;;;;;;;14.23;7.47;;;;;;;;;;6234788;23;20009;-45
2022/04/30 09:38:03;;;;;;;12.68;7.70;;;;;;;;;;6236590;23;20088;-44
2022/04/30 09:40:29;;;;;;;13.70;7.18;;;;;;;;;;6235944;23;20012;-45
2022/04/30 09:42:54;;;;;;;15.82;7.70;;;;;;;;;;6236478;23;20457;-45
2022/04/30 09:45:23;;;;;;;12.80;6.93;;;;;;;;;;6228442;23;20036;-45
2022/04/30 09:47:49;;;;;;;16.27;8.02;;;;;;;;;;6234450;23;20020;-47
2022/04/30 09:55:46;;;;;;;14.05;7.15;;;;;;;;;;6234806;23;20015;-43
2022/04/30 09:58:15;;;;;;;15.30;8.18;;;;;;;;;;6230543;23;20012;-47
2022/04/30 10:00:41;;;;;;;14.60;7.50;;;;;;;;;;6231426;23;20019;-45
2022/04/30 10:03:08;;;;;;;13.60;7.28;;;;;;;;;;6231886;23;20063;-46
2022/04/30 10:05:35;;;;;;;11.30;7.22;;;;;;;;;;6229632;23;20494;-44
2022/04/30 10:08:01;;;;;;;11.77;7.60;;;;;;;;;;6233538;23;20024;-43
2022/04/30 10:10:33;;;;;;;16.60;7.25;;;;;;;;;;6231636;23;20050;-45
2022/04/30 10:13:10;;;;;;;15.80;7.72;;;;;;;;;;6235144;23;20439;-45
2022/04/30 10:15:42;;;;;;;12.40;8.15;;;;;;;;;;6234675;23;20008;-43
2022/04/30 10:18:09;;;;;;;17.17;8.15;;;;;;;;;;6234591;23;20396;-44
2022/04/30 10:20:35;;;;;;;12.73;9.05;;;;;;;;;;6235619;23;20016;-46
2022/04/30 10:23:02;;;;;;;15.63;8.65;;;;;;;;;;6233101;23;20016;-43
2022/04/30 10:25:32;;;;;;;22.50;10.77;;;;;;;;;;6234264;23;20084;-43
2022/04/30 10:27:57;;;;;;;22.38;8.73;;;;;;;;;;6233566;23;20027;-44
2022/04/30 10:30:29;;;;;;;17.17;8.50;;;;;;;;;;6234664;23;20009;-46
2022/04/30 10:32:56;;;;;;;13.82;8.48;;;;;;;;;;6233922;23;20116;-45
2022/04/30 10:35:32;;;;;;;10.68;7.53;;;;;;;;;;6234066;23;20012;-44
2022/04/30 10:38:18;;;;;;;13.75;8.23;;;;;;;;;;6233563;23;20004;-45
2022/04/30 10:40:46;;;;;;;15.27;7.05;;;;;;;;;;6234659;23;20019;-43
2022/04/30 10:43:35;;;;;;;12.35;7.18;;;;;;;;;;6233573;23;20008;-49
2022/04/30 10:46:22;;;;;;;14.63;7.57;;;;;;;;;;6207999;23;20000;-45
2022/04/30 10:48:47;;;;;;;13.00;7.20;;;;;;;;;;6235098;23;20020;-43
2022/04/30 10:51:14;;;;;;;9.52;5.43;;;;;;;;;;6233197;23;20447;-46
2022/04/30 10:53:41;;;;;;;10.52;5.75;;;;;;;;;;6234412;23;20071;-44
2022/04/30 10:56:07;;;;;;;14.20;6.72;;;;;;;;;;6235200;23;20008;-45
2022/04/30 10:58:32;;;;;;;9.10;5.50;;;;;;;;;;6234623;23;20016;-45
2022/04/30 11:00:58;;;;;;;10.18;6.13;;;;;;;;;;6234146;23;20095;-45
2022/04/30 11:03:30;;;;;;;11.40;6.35;;;;;;;;;;6234426;23;20008;-46
2022/04/30 11:05:56;;;;;;;9.82;6.13;;;;;;;;;;6234154;23;20328;-44
2022/04/30 11:08:21;;;;;;;13.27;6.63;;;;;;;;;;6233480;23;20028;-44
2022/04/30 11:10:50;;;;;;;9.18;5.82;;;;;;;;;;6235056;23;20634;-43
2022/04/30 11:13:16;;;;;;;11.38;6.40;;;;;;;;;;6234341;23;20034;-43
2022/04/30 11:15:41;;;;;;;12.20;6.22;;;;;;;;;;6234421;23;20024;-43
2022/04/30 11:18:07;;;;;;;13.25;6.97;;;;;;;;;;6234407;23;20009;-43
2022/04/30 11:20:32;;;;;;;13.15;6.20;;;;;;;;;;6207439;23;20019;-44
2022/04/30 11:23:00;;;;;;;12.40;5.80;;;;;;;;;;6233743;23;20015;-43
2022/04/30 11:25:35;;;;;;;10.60;6.28;;;;;;;;;;6233886;23;20023;-46
2022/04/30 11:28:01;;;;;;;11.00;6.63;;;;;;;;;;6225230;23;20022;-45
2022/04/30 11:30:26;;;;;;;11.38;6.95;;;;;;;;;;6233415;23;20297;-44
2022/04/30 11:32:51;;;;;;;11.77;6.32;;;;;;;;;;6231736;23;20023;-45
2022/04/30 11:35:17;;;;;;;15.73;7.55;;;;;;;;;;6233654;23;20020;-45
2022/04/30 11:37:43;;;;;;;9.02;5.45;;;;;;;;;;6233345;23;20012;-44
2022/04/30 11:40:08;;;;;;;11.50;6.07;;;;;;;;;;6233808;23;20012;-44
2022/04/30 11:42:34;;;;;;;8.40;5.88;;;;;;;;;;6234632;23;20523;-44
2022/04/30 11:44:59;;;;;;;10.02;5.47;;;;;;;;;;6234986;23;20019;-43
2022/04/30 11:47:24;;;;;;;14.13;6.43;;;;;;;;;;6234382;23;20619;-46
2022/04/30 11:49:49;;;;;;;15.00;5.50;;;;;;;;;;6233757;23;20004;-44
2022/04/30 11:52:15;;;;;;;8.63;5.60;;;;;;;;;;6234907;23;20039;-44
2022/04/30 11:54:41;;;;;;;7.07;5.03;;;;;;;;;;6235471;23;20005;-46
2022/04/30 11:57:07;;;;;;;10.00;6.13;;;;;;;;;;6209577;23;20007;-45
2022/04/30 11:59:36;;;;;;;9.63;6.32;;;;;;;;;;6235536;23;20067;-47
2022/04/30 12:02:02;;;;;;;17.80;6.57;;;;;;;;;;6236255;23;20020;-46
2022/04/30 12:04:30;;;;;;;11.90;6.60;;;;;;;;;;6234804;23;20329;-45
2022/04/30 12:06:59;;;;;;;12.80;5.93;;;;;;;;;;6236267;23;20032;-46
2022/04/30 12:09:30;;;;;;;12.33;5.73;;;;;;;;;;6234803;23;20305;-45
2022/04/30 12:11:56;;;;;;;11.38;6.97;;;;;;;;;;6237082;23;20231;-44
2022/04/30 12:14:21;;;;;;;9.20;6.03;;;;;;;;;;6235308;23;20833;-44
2022/04/30 12:16:47;;;;;;;12.50;5.43;;;;;;;;;;6236908;23;20010;-45
2022/04/30 12:24:56;;;;;;;12.77;6.47;;;;;;;;;;6234942;23;20018;-44
2022/04/30 12:27:23;;;;;;;7.18;5.40;;;;;;;;;;6234910;23;20020;-44
2022/04/30 12:29:58;;;;;;;10.38;6.15;;;;;;;;;;6234813;23;20022;-44
2022/04/30 12:32:23;;;;;;;9.60;6.10;;;;;;;;;;6235226;23;20431;-44
2022/04/30 12:34:51;;;;;;;10.20;6.03;;;;;;;;;;6233829;23;20008;-45
2022/04/30 12:37:16;;;;;;;10.77;6.55;;;;;;;;;;6235179;23;20046;-45
2022/04/30 12:39:42;;;;;;;10.85;7.13;;;;;;;;;;6234459;23;20360;-44
2022/04/30 12:42:09;;;;;;;11.07;6.18;;;;;;;;;;6236975;23;20340;-44
2022/04/30 12:44:34;;;;;;;11.63;7.05;;;;;;;;;;6235170;23;20016;-46
2022/04/30 12:47:00;;;;;;;13.50;7.43;;;;;;;;;;6236791;23;20098;-43
2022/04/30 12:49:26;;;;;;;13.60;6.28;;;;;;;;;;6233737;23;20020;-44
2022/04/30 12:51:51;;;;;;;15.02;7.22;;;;;;;;;;6236166;23;20012;-44
2022/04/30 12:54:17;;;;;;;13.18;6.80;;;;;;;;;;6234351;23;20015;-45
2022/04/30 12:56:43;;;;;;;6.80;4.05;;;;;;;;;;6236274;23;20016;-44
2022/04/30 12:59:09;;;;;;;9.30;6.32;;;;;;;;;;6235012;23;20342;-43
2022/04/30 13:01:35;;;;;;;15.93;6.75;;;;;;;;;;6235544;23;20056;-45
2022/04/30 13:04:00;;;;;;;7.97;5.95;;;;;;;;;;6234295;23;20013;-44
2022/04/30 13:06:26;;;;;;;8.95;6.15;;;;;;;;;;6234848;23;20032;-43
2022/04/30 13:14:19;;;;;;;9.85;5.70;;;;;;;;;;6234916;23;20519;-43
2022/04/30 13:16:45;;;;;;;9.85;5.85;;;;;;;;;;6236368;23;20393;-45
2022/04/30 13:19:10;;;;;;;9.98;5.88;;;;;;;;;;6235340;23;20075;-45
2022/04/30 13:21:36;;;;;;;12.90;6.78;;;;;;;;;;6206102;23;20008;-43
2022/04/30 13:24:02;;;;;;;10.32;6.57;;;;;;;;;;6235931;23;20016;-45
2022/04/30 13:26:27;;;;;;;10.07;5.88;;;;;;;;;;6233517;23;20035;-47
2022/04/30 13:28:52;;;;;;;8.98;6.05;;;;;;;;;;6234597;23;20018;-45
2022/04/30 13:31:17;;;;;;;11.98;6.72;;;;;;;;;;6233042;23;20056;-46
2022/04/30 13:33:43;;;;;;;12.88;5.95;;;;;;;;;;6235502;23;20012;-44
2022/04/30 13:36:09;;;;;;;8.20;5.60;;;;;;;;;;6234069;23;20043;-43
2022/04/30 13:38:35;;;;;;;5.85;3.70;;;;;;;;;;6208243;23;20023;-45
2022/04/30 13:41:01;;;;;;;8.80;6.15;;;;;;;;;;6235651;23;20097;-46
2022/04/30 13:43:26;;;;;;;9.00;6.35;;;;;;;;;;6233635;23;20984;-44
2022/04/30 13:45:52;;;;;;;10.02;5.07;;;;;;;;;;6235789;23;20015;-44
2022/04/30 13:48:18;;;;;;;7.68;5.05;;;;;;;;;;6233654;23;20058;-45
2022/04/30 13:50:43;;;;;;;9.77;5.95;;;;;;;;;;6235462;23;20008;-44
2022/04/30 13:53:08;;;;;;;9.48;6.00;;;;;;;;;;6234315;23;20031;-45
2022/04/30 13:55:34;;;;;;;11.55;5.72;;;;;;;;;;6233450;23;20016;-46
2022/04/30 13:57:59;;;;;;;8.13;5.28;;;;;;;;;;6235059;23;20710;-43
2022/04/30 14:00:25;;;;;;;8.77;6.10;;;;;;;;;;6234385;23;20062;-45
2022/04/30 14:02:50;;;;;;;10.35;5.85;;;;;;;;;;6234603;23;20410;-44
2022/04/30 14:05:15;;;;;;;6.07;4.72;;;;;;;;;;6234778;23;20073;-45
2022/04/30 14:07:41;;;;;;;8.85;4.45;;;;;;;;;;6232967;23;20318;-43
2022/04/30 14:10:06;;;;;;;4.28;3.00;;;;;;;;;;6235289;23;20095;-43
2022/04/30 14:12:32;;;;;;;9.40;5.63;;;;;;;;;;6233771;23;20023;-46
2022/04/30 14:14:57;;;;;;;6.32;3.47;;;;;;;;;;6235200;23;20008;-43
2022/04/30 14:20:11;;;;;;;6.97;4.80;;;;;;;;;;6234919;23;20486;-43
2022/04/30 14:22:36;;;;;;;8.07;4.57;;;;;;;;;;6234016;23;20008;-45
2022/04/30 14:25:02;;;;;;;6.78;4.03;;;;;;;;;;6233469;23;20022;-44
2022/04/30 14:27:27;;;;;;;7.72;4.25;;;;;;;;;;6234330;23;20020;-44
2022/04/30 14:29:53;;;;;;;5.63;3.88;;;;;;;;;;6233442;23;20009;-46
2022/04/30 14:32:19;;;;;;;5.25;3.55;;;;;;;;;;6233972;23;20355;-45
2022/04/30 14:34:45;;;;;;;2.65;2.20;;;;;;;;;;6233830;23;20059;-44
2022/04/30 14:37:10;;;;;;;5.78;3.78;;;;;;;;;;6233615;23;20009;-44
2022/04/30 14:39:36;;;;;;;9.15;4.15;;;;;;;;;;6233543;23;20064;-43
2022/04/30 14:42:02;;;;;;;3.28;2.42;;;;;;;;;;6233848;23;20008;-43
2022/04/30 14:44:27;;;;;;;7.55;5.15;;;;;;;;;;6234926;23;20016;-44
2022/04/30 14:46:52;;;;;;;9.82;5.05;;;;;;;;;;6233948;23;20015;-44
2022/04/30 14:49:18;;;;;;;7.03;4.15;;;;;;;;;;6233420;23;20116;-43
2022/04/30 14:51:43;;;;;;;8.15;3.55;;;;;;;;;;6234181;23;20034;-44
2022/04/30 14:54:08;;;;;;;5.93;3.47;;;;;;;;;;6208881;23;20086;-45
2022/04/30 14:56:34;;;;;;;5.30;3.63;;;;;;;;;;6234204;23;20016;-44
2022/04/30 14:59:00;;;;;;;13.45;5.78;;;;;;;;;;6234955;23;20015;-45
2022/04/30 15:01:25;;;;;;;8.30;4.82;;;;;;;;;;6233807;23;20020;-45
2022/04/30 15:03:51;;;;;;;8.10;5.10;;;;;;;;;;6235119;23;20092;-44
2022/04/30 15:06:16;;;;;;;11.20;7.13;;;;;;;;;;6233001;23;20028;-43
2022/04/30 15:08:41;;;;;;;10.00;5.70;;;;;;;;;;6234630;23;20054;-43